Huvudsida
METAR-TAF:

METAR-TAF

Flygplatser :

Ivalos flygplats

Ivalo, Finland

latitud: 68-37N, longitud: 027-25E, höjd: 147 m

Aktuellt väderrapport

Denna rapport gjordes för 39 minuter sedan, klockan 03:50 UTC
Vind 2 kt varierande vindriktning
Temperatur -13°C
Fuktighet 85%
Tryck 988 hPa
Sikt 10 km eller mer
lätta snöbyar

METAR: EFIV 190350Z AUTO VRB02KT 9999 -SHSN NSC M13/M15 Q0988

Tid: 06:29 (04:29 UTC)

Väderprognos

Denna rapport gjordes för 2 timmar och 4 minuter sedan, klockan 02:25 UTC
Prognos gäller från 19 kl. 03 UTC till 19 kl. 12 UTC
Vind 4 kt från nord/nordväst
Sikt 10 km eller mer
Inga moln under 1 500 m eller inga cumulonimbus
Temporärt
från 19 kl. 03 UTC till 19 kl. 06 UTC
Sikt: 4500 m
lätta snöbyar

TAF: EFIV 190225Z 1903/1912 33004KT CAVOK TEMPO 1903/1906 4500 -SHSN

Aktuella väderrapporter och prognoser från 4000 flygplatser (METAR- och TAF-rapporter).

De tillgängliga stationerna syns som gula och röda prickar på kartan.

För musen över prickarna för att se namnen på stationerna.

Klicka sedan för att få väderrapporter och prognoser.

För att ändra kartan: Klicka på de gröna knapparna med ett svart kors på för att zooma in; den gröna knappen med ett streck på för att zooma ut; eller på de gröna pilarna för angränsande kartor.


METAR-TAF: